createdAt,value
2019-03-29T00:01:40.282Z,33.97
2019-03-29T00:06:43.676Z,34.17
2019-03-29T00:11:47.370Z,35.60
2019-03-29T00:16:50.454Z,30.70
2019-03-29T00:21:54.098Z,34.30
2019-03-29T00:26:57.181Z,32.17
2019-03-29T00:32:00.253Z,33.07
2019-03-29T00:37:03.662Z,34.53
2019-03-29T00:42:06.810Z,30.10
2019-03-29T00:47:10.221Z,31.60
2019-03-29T00:52:13.293Z,32.17
2019-03-29T00:57:16.987Z,33.63
2019-03-29T01:02:20.382Z,33.27
2019-03-29T01:07:23.774Z,30.67
2019-03-29T01:12:27.419Z,32.67
2019-03-29T01:17:30.854Z,32.23
2019-03-29T01:22:33.932Z,30.47
2019-03-29T01:27:36.997Z,27.07
2019-03-29T01:32:40.679Z,28.30
2019-03-29T01:37:43.750Z,29.27
2019-03-29T01:42:47.409Z,30.53
2019-03-29T01:47:50.491Z,29.37
2019-03-29T01:52:53.841Z,28.20
2019-03-29T01:57:56.909Z,30.43
2019-03-29T02:03:00.368Z,28.67
2019-03-29T02:08:04.883Z,29.20
2019-03-29T02:13:08.818Z,34.87
2019-03-29T02:18:12.385Z,30.57
2019-03-29T02:23:16.058Z,32.78
2019-03-29T02:28:19.457Z,27.50
2019-03-29T02:33:22.865Z,30.67
2019-03-29T02:38:26.319Z,29.20
2019-03-29T02:43:30.023Z,25.90
2019-03-29T02:48:33.512Z,27.97
2019-03-29T02:53:36.871Z,26.80
2019-03-29T02:58:40.281Z,24.60
2019-03-29T03:03:43.605Z,27.40
2019-03-29T03:08:47.003Z,28.87
2019-03-29T03:13:50.410Z,26.47
2019-03-29T03:18:53.806Z,29.63
2019-03-29T03:23:57.155Z,26.23
2019-03-29T03:29:00.568Z,29.40
2019-03-29T03:34:03.960Z,28.17
2019-03-29T03:39:07.395Z,26.17
2019-03-29T03:44:11.118Z,29.00
2019-03-29T03:49:14.535Z,27.27
2019-03-29T03:54:17.675Z,27.43
2019-03-29T03:59:23.024Z,27.23
2019-03-29T04:04:26.433Z,27.80
2019-03-29T04:09:29.502Z,27.07
2019-03-29T04:14:32.596Z,23.20
2019-03-29T04:19:35.649Z,23.20
2019-03-29T04:24:39.063Z,24.47
2019-03-29T04:29:42.303Z,23.83
2019-03-29T04:34:45.680Z,23.27
2019-03-29T04:40:05.747Z,23.87
2019-03-29T04:44:53.883Z,23.00
2019-03-29T04:49:56.956Z,25.50
2019-03-29T04:55:00.027Z,23.63
2019-03-29T05:00:03.185Z,24.07
2019-03-29T05:05:06.644Z,23.07
2019-03-29T05:10:20.248Z,26.73
2019-03-29T05:15:14.932Z,23.17
2019-03-29T05:20:18.655Z,21.97
2019-03-29T05:25:21.978Z,22.27
2019-03-29T05:30:25.687Z,23.30
2019-03-29T05:35:29.016Z,24.10
2019-03-29T05:41:33.333Z,23.77
2019-03-29T05:45:37.250Z,24.13
2019-03-29T05:50:40.587Z,23.13
2019-03-29T05:55:44.326Z,26.30
2019-03-29T06:00:47.748Z,25.68
2019-03-29T06:05:50.846Z,19.67
2019-03-29T06:10:53.931Z,18.47
2019-03-29T06:15:57.655Z,16.30
2019-03-29T06:21:01.370Z,15.07
2019-03-29T06:26:05.105Z,14.70
2019-03-29T06:31:08.522Z,12.93
2019-03-29T06:36:13.623Z,13.10
2019-03-29T06:41:17.291Z,12.70
2019-03-29T06:46:21.950Z,12.70
2019-03-29T06:51:25.651Z,11.60
2019-03-29T06:56:29.375Z,13.37
2019-03-29T07:01:33.108Z,12.00
2019-03-29T07:06:36.535Z,14.53
2019-03-29T07:11:39.962Z,12.97
2019-03-29T07:16:43.650Z,12.27
2019-03-29T07:21:52.645Z,12.53
2019-03-29T07:26:55.982Z,10.37
2019-03-29T07:31:59.399Z,12.18
2019-03-29T07:37:05.827Z,10.60
2019-03-29T07:42:07.943Z,10.40
2019-03-29T07:47:12.263Z,10.43
2019-03-29T07:52:15.473Z,10.60
2019-03-29T07:57:18.542Z,10.07
2019-03-29T08:02:21.614Z,9.83
2019-03-29T08:07:27.594Z,9.40
2019-03-29T08:12:30.188Z,11.03
2019-03-29T08:17:33.646Z,10.67
2019-03-29T08:22:36.959Z,11.30
2019-03-29T08:27:40.687Z,11.47
2019-03-29T08:32:43.779Z,10.33
2019-03-29T08:37:47.183Z,8.90
2019-03-29T08:42:50.827Z,9.27
2019-03-29T08:47:54.477Z,9.97
2019-03-29T08:52:58.144Z,9.90
2019-03-29T08:58:01.541Z,9.83
2019-03-29T09:03:05.265Z,9.77
2019-03-29T09:08:08.729Z,10.30
2019-03-29T09:13:12.138Z,10.90
2019-03-29T09:18:15.567Z,10.30
2019-03-29T09:23:19.028Z,10.33
2019-03-29T09:28:22.685Z,10.47
2019-03-29T09:33:26.023Z,9.83
2019-03-29T09:38:29.444Z,9.87
2019-03-29T09:43:32.582Z,7.60
2019-03-29T09:48:35.911Z,8.63
2019-03-29T09:53:41.191Z,7.53
2019-03-29T09:58:45.178Z,7.30
2019-03-29T10:03:48.876Z,7.73
2019-03-29T10:08:53.519Z,7.03
2019-03-29T10:13:57.047Z,7.37
2019-03-29T10:19:00.377Z,6.67
2019-03-29T10:24:03.536Z,9.40
2019-03-29T10:29:06.847Z,6.13
2019-03-29T10:34:10.500Z,6.07
2019-03-29T10:39:13.990Z,5.70
2019-03-29T10:44:17.542Z,5.80
2019-03-29T10:49:20.858Z,6.57
2019-03-29T10:54:23.941Z,6.03
2019-03-29T10:59:28.078Z,7.00
2019-03-29T11:04:32.116Z,5.83
2019-03-29T11:09:37.236Z,5.60
2019-03-29T11:14:40.471Z,5.03
2019-03-29T11:19:43.799Z,5.17
2019-03-29T11:24:48.300Z,5.63
2019-03-29T11:29:51.966Z,4.47
2019-03-29T11:34:55.615Z,4.10
2019-03-29T11:39:58.958Z,3.80
2019-03-29T11:45:02.643Z,4.63
2019-03-29T11:50:05.783Z,3.90
2019-03-29T11:55:08.848Z,5.47
2019-03-29T12:00:12.199Z,4.43
2019-03-29T12:05:15.610Z,4.23
2019-03-29T12:10:19.327Z,3.87
2019-03-29T12:15:23.267Z,3.70
2019-03-29T12:20:26.339Z,3.83
2019-03-29T12:25:29.419Z,3.50
2019-03-29T12:30:32.719Z,3.80
2019-03-29T12:35:35.789Z,4.00
2019-03-29T12:40:39.203Z,3.67
2019-03-29T12:45:42.671Z,3.27
2019-03-29T12:50:46.108Z,3.43
2019-03-29T12:55:49.706Z,3.30
2019-03-29T13:00:53.109Z,3.83
2019-03-29T13:05:56.186Z,3.63
2019-03-29T13:10:59.894Z,4.03
2019-03-29T13:16:03.547Z,4.20
2019-03-29T13:21:07.236Z,3.47
2019-03-29T13:26:10.416Z,4.70
2019-03-29T13:31:13.790Z,3.70
2019-03-29T13:36:17.311Z,3.50
2019-03-29T13:41:20.471Z,3.90
2019-03-29T13:46:23.651Z,4.03
2019-03-29T13:51:27.156Z,3.30
2019-03-29T13:56:30.695Z,3.07
2019-03-29T14:01:34.466Z,2.53
2019-03-29T14:06:38.189Z,3.10
2019-03-29T14:11:41.716Z,4.83
2019-03-29T14:16:45.094Z,3.37
2019-03-29T14:21:49.581Z,3.10
2019-03-29T14:26:53.476Z,3.17
2019-03-29T14:31:57.266Z,3.20
2019-03-29T14:37:01.242Z,3.23
2019-03-29T14:42:04.942Z,2.97
2019-03-29T14:47:08.316Z,3.10
2019-03-29T14:52:11.715Z,3.17
2019-03-29T14:57:14.885Z,2.90
2019-03-29T15:02:18.059Z,2.90
2019-03-29T15:07:21.716Z,2.57
2019-03-29T15:12:25.304Z,3.23
2019-03-29T15:17:28.708Z,3.03
2019-03-29T15:22:33.220Z,3.57
2019-03-29T15:27:36.800Z,3.53
2019-03-29T15:32:39.977Z,3.40
2019-03-29T15:37:43.411Z,3.07
2019-03-29T15:42:46.583Z,3.40
2019-03-29T15:47:49.691Z,3.43
2019-03-29T15:52:53.182Z,4.60
2019-03-29T15:57:56.528Z,4.00
2019-03-29T16:02:59.895Z,4.77
2019-03-29T16:08:02.975Z,3.27
2019-03-29T16:13:06.381Z,3.37
2019-03-29T16:18:10.066Z,3.33
2019-03-29T16:23:13.703Z,3.20
2019-03-29T16:28:17.369Z,2.67
2019-03-29T16:33:20.440Z,3.47
2019-03-29T16:38:24.142Z,3.13
2019-03-29T16:43:27.470Z,4.13
2019-03-29T16:48:30.892Z,5.47
2019-03-29T16:53:35.451Z,2.97
2019-03-29T16:58:38.541Z,3.20
2019-03-29T17:03:42.211Z,4.73
2019-03-29T17:08:45.360Z,3.77
2019-03-29T17:13:48.437Z,3.20
2019-03-29T17:18:51.506Z,3.37
2019-03-29T17:23:55.165Z,2.80
2019-03-29T17:28:58.243Z,3.93
2019-03-29T17:34:01.324Z,3.13
2019-03-29T17:39:06.861Z,2.80
2019-03-29T17:44:09.943Z,3.20
2019-03-29T17:49:13.034Z,2.80
2019-03-29T17:54:16.436Z,3.33
2019-03-29T17:59:19.755Z,3.80
2019-03-29T18:04:23.178Z,3.00
2019-03-29T18:09:26.239Z,3.77
2019-03-29T18:14:29.560Z,3.60
2019-03-29T18:19:32.913Z,4.00
2019-03-29T18:24:36.243Z,4.97
2019-03-29T18:29:39.704Z,3.30
2019-03-29T18:34:43.365Z,4.40
2019-03-29T18:39:47.136Z,3.93
2019-03-29T18:44:50.502Z,3.43
2019-03-29T18:49:53.857Z,13.37
2019-03-29T18:54:57.273Z,3.97
2019-03-29T19:00:00.580Z,4.43
2019-03-29T19:05:04.454Z,2.93
2019-03-29T19:10:08.002Z,3.20
2019-03-29T19:15:11.656Z,2.90
2019-03-29T19:20:26.622Z,3.27
2019-03-29T19:25:19.544Z,3.07
2019-03-29T19:30:23.024Z,3.33
2019-03-29T19:35:26.363Z,3.43
2019-03-29T19:40:30.024Z,3.60
2019-03-29T19:45:34.492Z,3.83
2019-03-29T19:50:38.107Z,3.47
2019-03-29T19:55:41.191Z,3.20
2019-03-29T20:00:44.884Z,3.57
2019-03-29T20:05:48.372Z,3.50
2019-03-29T20:10:52.216Z,3.53
2019-03-29T20:15:55.570Z,3.77
2019-03-29T20:20:59.008Z,3.73
2019-03-29T20:26:02.421Z,3.67
2019-03-29T20:31:06.132Z,4.00
2019-03-29T20:36:09.443Z,3.80
2019-03-29T20:41:12.842Z,5.03
2019-03-29T20:46:16.187Z,4.03
2019-03-29T20:51:19.598Z,5.07
2019-03-29T20:56:22.662Z,3.53
2019-03-29T21:01:26.429Z,4.70
2019-03-29T21:06:29.835Z,4.97
2019-03-29T21:11:33.243Z,6.53
2019-03-29T21:16:36.326Z,4.30
2019-03-29T21:21:39.736Z,6.30
2019-03-29T21:26:43.145Z,5.00
2019-03-29T21:31:46.810Z,4.47
2019-03-29T21:36:49.900Z,4.80
2019-03-29T21:41:52.993Z,5.23
2019-03-29T21:46:56.369Z,4.37
2019-03-29T21:51:59.831Z,5.43
2019-03-29T21:57:03.481Z,9.00
2019-03-29T22:02:06.880Z,8.05
2019-03-29T22:07:10.293Z,4.60
2019-03-29T22:12:13.636Z,5.87
2019-03-29T22:17:16.731Z,5.57
2019-03-29T22:22:20.139Z,4.83
2019-03-29T22:27:23.851Z,6.30
2019-03-29T22:32:27.594Z,10.10
2019-03-29T22:37:31.012Z,9.50
2019-03-29T22:42:34.123Z,13.07
2019-03-29T22:47:37.537Z,11.10
2019-03-29T22:52:40.937Z,8.53
2019-03-29T22:57:44.254Z,6.73
2019-03-29T23:02:48.246Z,6.93
2019-03-29T23:07:52.012Z,7.53
2019-03-29T23:12:55.440Z,6.10
2019-03-29T23:17:58.513Z,6.57
2019-03-29T23:23:02.297Z,6.27
2019-03-29T23:28:06.070Z,8.43
2019-03-29T23:33:09.222Z,6.87
2019-03-29T23:38:12.311Z,6.60
2019-03-29T23:43:18.061Z,5.90
2019-03-29T23:48:21.783Z,6.53
2019-03-29T23:53:24.864Z,6.83
2019-03-29T23:58:27.932Z,6.40
